Thunder radar more information blitzortung!


Radar de pluja more information rain snow radar


Visita la nostra xarxa de llocs de meteo:

Template documentation
and downloads

And another site



Extreme low temperature From: 23-02-2018 09:00 Until: 09:59 warning for: Extreme low temperature Level: Yellow info button

Pagina Historial Weather Underground text

Diari Resum Desembre 17, 2017 Unitats:  Imperial    Mètric   Tant
« Previous Dia
SegĂźent Dia »
Diari Setmana Mensual Anual Personalitzada
  Maxima: Minima: Media:
Temperatura: TemperatureC °F 1.4 °F 7.5 °F
Punt de rosada: DewpointC °F -9.1 °F -5.8 °F
Humitat: Humidity % 31 % 39 %
Wind Speed: WindSpeedKMH mph 0.0 mph 4.7 mph
RĂ fegues de vent: WindSpeedGustKMH mph - -
Vent:- - SSW
Pression baro: PressurehPa in 1020.9 in -
Precipitacions: 0.0 in    
Historical Graphs
 
 
Dades de taula per Desembre 17, 2017
Temps Temperatura Punt de rosada Pression baro Vent Wind Speed RĂ fegues de vent Humitat Rainfall Rate (Hourly)
TemperatureC °F DewpointC °F PressurehPa in Calm     Humidity % HourlyPrecipMM in
00:00 3.9 °F -6.4 °F 1022.9 in WSW 4.8 mph 4.8 mph 47 % 0.0 in
00:01 5.1 °F -6.5 °F 1020.9 in NNE 3.7 mph   43 % 0.0 in
00:02 5.1 °F -6.5 °F 1020.9 in NNE 3.7 mph   43 % 0.0 in
00:07 4.9 °F -6.7 °F 1020.9 in WSW 5.0 mph 5.0 mph 43 % 0.0 in
00:08 4.9 °F -6.7 °F 1020.9 in WSW 3.7 mph 3.9 mph 43 % 0.0 in
00:10 4.0 °F -6.3 °F 1023.9 in WSW 4.8 mph 8.0 mph 47 % 0.0 in
00:20 4.1 °F -6.2 °F 1023.9 in WSW 4.8 mph 6.4 mph 47 % 0.0 in
00:30 4.1 °F -6.2 °F 1023.9 in WSW 4.8 mph 6.4 mph 47 % 0.0 in
00:40 3.8 °F -6.5 °F 1022.9 in WSW 3.2 mph 4.8 mph 47 % 0.0 in
00:50 3.4 °F -6.9 °F 1023.9 in SE 3.2 mph 3.2 mph 47 % 0.0 in
01:00 3.3 °F -6.7 °F 1023.9 in SW 1.6 mph 4.8 mph 48 % 0.0 in
01:20 2.7 °F -7.2 °F 1023.9 in West 1.6 mph 3.2 mph 48 % 0.0 in
01:40 2.3 °F -7.6 °F 1024.9 in Calm   4.8 mph 48 % 0.0 in
01:50 2.0 °F -7.9 °F 1026.0 in Calm   1.6 mph 48 % 0.0 in
02:00 2.2 °F -7.7 °F 1026.0 in NNE 1.6 mph 4.8 mph 48 % 0.0 in
02:10 1.5 °F -8.3 °F 1026.0 in West 3.2 mph 4.8 mph 48 % 0.0 in
02:20 1.4 °F -8.4 °F 1026.0 in Calm   1.6 mph 48 % 0.0 in
02:30 1.5 °F -8.1 °F 1026.0 in WNW 1.6 mph 3.2 mph 49 % 0.0 in
02:40 2.2 °F -7.2 °F 1026.0 in West 1.6 mph 3.2 mph 50 % 0.0 in
02:50 2.2 °F -7.4 °F 1026.0 in Calm   3.2 mph 49 % 0.0 in
03:00 2.7 °F -6.7 °F 1026.0 in Calm   4.8 mph 50 % 0.0 in
03:10 3.4 °F -6.3 °F 1026.0 in North 1.6 mph 1.6 mph 49 % 0.0 in
03:20 3.9 °F -5.8 °F 1026.0 in NW 1.6 mph 1.6 mph 49 % 0.0 in
03:30 3.9 °F -5.8 °F 1026.0 in West 3.2 mph 4.8 mph 49 % 0.0 in
03:40 4.0 °F -5.8 °F 1026.0 in SW 1.6 mph 4.8 mph 49 % 0.0 in
03:50 5.1 °F -4.8 °F 1027.0 in SW 1.6 mph 1.6 mph 49 % 0.0 in
04:00 5.4 °F -4.5 °F 1027.0 in East 1.6 mph 3.2 mph 49 % 0.0 in
04:40 5.4 °F -4.7 °F 1027.0 in NE 1.6 mph 6.4 mph 48 % 0.0 in
04:50 5.7 °F -4.8 °F 1028.0 in ENE 3.2 mph 4.8 mph 47 % 0.0 in
10:53 6.4 °F -4.1 °F 1028.0 in South 3.7 mph   47 % 0.0 in
10:54 6.6 °F -3.9 °F 1028.0 in South 3.7 mph   47 % 0.0 in
10:59 6.5 °F -4.0 °F 1028.0 in ESE 3.7 mph 3.7 mph 47 % 0.0 in
11:01 6.7 °F -3.8 °F 1028.0 in WNW 1.9 mph   47 % 0.0 in
11:03 6.5 °F -4.0 °F 1028.0 in NNE 4.2 mph 4.2 mph 47 % 0.0 in
11:06 6.3 °F -4.2 °F 1028.0 in ENE 3.7 mph 3.7 mph 47 % 0.0 in
11:11 6.3 °F -4.2 °F 1028.0 in NE 5.6 mph 5.6 mph 47 % 0.0 in
11:12 6.3 °F -4.2 °F 1028.0 in ENE 3.7 mph 3.9 mph 47 % 0.0 in
11:16 6.7 °F -3.8 °F 1028.0 in North 5.6 mph 5.6 mph 47 % 0.0 in
11:18 6.9 °F -3.7 °F 1028.0 in NW 1.9 mph 1.9 mph 47 % 0.0 in
11:21 7.0 °F -3.6 °F 1028.0 in NE 3.7 mph 3.7 mph 47 % 0.0 in
11:24 7.1 °F -3.4 °F 1028.0 in ENE 4.7 mph 4.7 mph 47 % 0.0 in
11:28 7.4 °F -3.2 °F 1028.0 in North 3.7 mph 3.7 mph 47 % 0.0 in
11:32 7.5 °F -3.4 °F 1028.0 in ESE 1.9 mph   46 % 0.0 in
11:36 7.6 °F -3.3 °F 1028.0 in ESE 3.7 mph 3.9 mph 46 % 0.0 in
11:37 7.5 °F -3.4 °F 1028.0 in East 3.7 mph 3.7 mph 46 % 0.0 in
11:38 7.5 °F -3.4 °F 1028.0 in East 3.7 mph 3.7 mph 46 % 0.0 in
11:43 7.7 °F -3.2 °F 1027.0 in ENE 5.6 mph   46 % 0.0 in
11:48 8.5 °F -2.2 °F 1027.0 in South 5.6 mph   47 % 0.0 in
11:50 8.7 °F -2.0 °F 1027.0 in SW 3.7 mph 3.7 mph 47 % 0.0 in
11:55 8.7 °F -2.3 °F 1027.0 in ENE 3.7 mph 3.7 mph 46 % 0.0 in
11:56 8.7 °F -2.3 °F 1027.0 in ENE 5.6 mph 5.6 mph 46 % 0.0 in
11:59 8.7 °F -2.3 °F 1027.0 in NE 3.7 mph 3.9 mph 46 % 0.0 in
12:04 9.1 °F -1.6 °F 1027.0 in SW 7.4 mph 7.4 mph 47 % 0.0 in
12:07 9.1 °F -1.6 °F 1027.0 in SW 5.6 mph 5.6 mph 47 % 0.0 in
12:10 9.5 °F -1.6 °F 1027.0 in ESE 4.7 mph 4.7 mph 46 % 0.0 in
12:15 9.5 °F -1.6 °F 1026.0 in East 5.0 mph 5.0 mph 46 % 0.0 in
12:20 9.4 °F -1.9 °F 1026.0 in ESE 3.9 mph 4.2 mph 45 % 0.0 in
12:21 9.4 °F -1.9 °F 1026.0 in ESE 3.7 mph 3.7 mph 45 % 0.0 in
12:26 9.4 °F -1.9 °F 1026.0 in NNE 3.7 mph 3.9 mph 45 % 0.0 in
12:31 9.7 °F -1.7 °F 1026.0 in NNE 3.7 mph 3.9 mph 45 % 0.0 in
12:36 9.8 °F -1.6 °F 1026.0 in WSW 5.3 mph 5.3 mph 45 % 0.0 in
12:37 9.9 °F -1.2 °F 1026.0 in SW 5.8 mph 5.8 mph 46 % 0.0 in
12:40 10.0 °F -1.1 °F 1026.0 in NNW 5.6 mph 5.6 mph 46 % 0.0 in
12:43 10.3 °F -1.1 °F 1026.0 in West 5.6 mph 5.6 mph 45 % 0.0 in
12:48 10.5 °F -0.7 °F 1026.0 in SW 5.0 mph 5.0 mph 46 % 0.0 in
12:51 10.7 °F -0.8 °F 1026.0 in NNE 7.4 mph 7.4 mph 45 % 0.0 in
12:54 10.3 °F -1.1 °F 1026.0 in NE 7.4 mph 7.4 mph 45 % 0.0 in
12:59 10.8 °F -0.7 °F 1026.0 in WSW 7.4 mph 7.4 mph 45 % 0.0 in
13:00 10.8 °F -0.7 °F 1026.0 in WSW 7.4 mph 7.4 mph 45 % 0.0 in
13:01 10.8 °F -0.7 °F 1026.0 in WSW 7.4 mph 7.4 mph 45 % 0.0 in
13:06 10.5 °F -1.3 °F 1026.0 in WNW 3.9 mph 3.9 mph 44 % 0.0 in
13:11 11.0 °F -0.5 °F 1026.0 in SSW 7.4 mph 7.4 mph 45 % 0.0 in
13:16 11.3 °F -0.6 °F 1026.0 in SW 11.1 mph 11.1 mph 44 % 0.0 in
13:21 11.4 °F -0.8 °F 1026.0 in WSW 9.3 mph 9.3 mph 43 % 0.0 in
13:26 11.4 °F -0.8 °F 1026.0 in West 13.0 mph 13.0 mph 43 % 0.0 in
13:27 11.4 °F -0.8 °F 1026.0 in West 13.0 mph 13.0 mph 43 % 0.0 in
13:29 11.3 °F -0.8 °F 1026.0 in WSW 16.7 mph 16.7 mph 43 % 0.0 in
13:32 11.3 °F -1.2 °F 1026.0 in WSW 9.5 mph 9.5 mph 42 % 0.0 in
13:34 11.4 °F -1.1 °F 1026.0 in SW 9.3 mph 9.3 mph 42 % 0.0 in
13:39 11.5 °F -1.0 °F 1026.0 in SW 7.4 mph 7.4 mph 42 % 0.0 in
13:41 11.4 °F -1.1 °F 1026.0 in WNW 7.4 mph 7.4 mph 42 % 0.0 in
13:44 11.4 °F -1.1 °F 1026.0 in SSW 7.4 mph 7.4 mph 42 % 0.0 in
13:47 11.4 °F -1.1 °F 1026.0 in NNW 9.5 mph 9.5 mph 42 % 0.0 in
13:50 11.2 °F -1.3 °F 1026.0 in SW 13.7 mph 13.7 mph 42 % 0.0 in
13:54 11.3 °F -1.5 °F 1026.0 in WSW 9.7 mph 9.7 mph 41 % 0.0 in
13:55 11.2 °F -1.6 °F 1026.0 in WSW 5.6 mph 5.6 mph 41 % 0.0 in
14:00 11.2 °F -1.6 °F 1026.0 in South 10.3 mph 10.3 mph 41 % 0.0 in
14:01 11.2 °F -1.6 °F 1026.0 in WSW 7.4 mph 7.6 mph 41 % 0.0 in
14:06 11.0 °F -1.8 °F 1026.0 in WSW 13.0 mph 13.0 mph 41 % 0.0 in
14:08 10.9 °F -2.2 °F 1026.0 in WNW 13.0 mph 13.0 mph 40 % 0.0 in
14:14 10.8 °F -2.3 °F 1026.0 in WSW 13.0 mph 13.0 mph 40 % 0.0 in
14:19 10.7 °F -2.7 °F 1026.0 in NNW 9.3 mph 9.5 mph 39 % 0.0 in
14:20 10.7 °F -2.7 °F 1026.0 in NNW 9.3 mph 9.5 mph 39 % 0.0 in
14:25 10.8 °F -2.6 °F 1026.0 in West 14.8 mph 14.8 mph 39 % 0.0 in
14:27 10.8 °F -2.6 °F 1026.0 in WSW 14.8 mph 14.8 mph 39 % 0.0 in
14:31 10.9 °F -2.6 °F 1026.0 in West 14.8 mph 14.8 mph 39 % 0.0 in
14:34 11.0 °F -2.4 °F 1026.0 in WSW 11.1 mph 11.1 mph 39 % 0.0 in
14:36 11.0 °F -2.4 °F 1026.0 in West 11.1 mph 11.1 mph 39 % 0.0 in
14:41 11.0 °F -2.8 °F 1024.9 in WSW 12.2 mph 12.2 mph 38 % 0.0 in
14:46 11.1 °F -2.7 °F 1024.9 in WNW 14.8 mph 14.8 mph 38 % 0.0 in
14:50 11.3 °F -2.5 °F 1024.9 in West 13.0 mph 13.0 mph 38 % 0.0 in
14:51 11.3 °F -2.5 °F 1024.9 in West 13.0 mph 13.0 mph 38 % 0.0 in
14:55 11.3 °F -2.9 °F 1024.9 in WSW 5.3 mph 5.3 mph 37 % 0.0 in
15:01 11.6 °F -2.6 °F 1024.9 in WSW 7.4 mph 7.4 mph 37 % 0.0 in
15:06 11.6 °F -2.6 °F 1024.9 in West 9.3 mph 9.3 mph 37 % 0.0 in
15:08 11.6 °F -3.0 °F 1024.9 in WSW 9.3 mph 9.3 mph 36 % 0.0 in
15:13 11.7 °F -2.9 °F 1024.9 in WNW 5.6 mph 5.6 mph 36 % 0.0 in
15:17 11.7 °F -2.9 °F 1024.9 in NNW 9.3 mph 9.3 mph 36 % 0.0 in
15:19 11.8 °F -2.8 °F 1024.9 in NNW 7.9 mph 7.9 mph 36 % 0.0 in
15:24 11.7 °F -3.3 °F 1024.9 in NNW 11.1 mph 11.1 mph 35 % 0.0 in
15:25 11.7 °F -3.7 °F 1024.9 in WSW 17.2 mph 17.2 mph 34 % 0.0 in
15:30 11.6 °F -3.8 °F 1024.9 in West 8.0 mph 17.7 mph 34 % 0.0 in
15:34 11.5 °F -4.2 °F 1024.9 in NW 10.3 mph 10.3 mph 33 % 0.0 in
15:35 11.4 °F -4.3 °F 1024.9 in WSW 14.8 mph 14.8 mph 33 % 0.0 in
15:40 11.6 °F -4.2 °F 1024.9 in WSW 9.3 mph 9.3 mph 33 % 0.0 in
15:41 11.6 °F -4.2 °F 1024.9 in WSW 9.3 mph 9.3 mph 33 % 0.0 in
15:46 11.8 °F -4.0 °F 1024.9 in WSW 9.3 mph 9.3 mph 33 % 0.0 in
15:47 11.8 °F -4.0 °F 1024.9 in SW 5.6 mph 5.6 mph 33 % 0.0 in
15:48 11.8 °F -4.0 °F 1024.9 in SW 5.6 mph 5.6 mph 33 % 0.0 in
15:52 11.9 °F -3.9 °F 1024.9 in SSW 5.6 mph 5.6 mph 33 % 0.0 in
15:54 11.8 °F -4.0 °F 1024.9 in WNW 13.0 mph 13.0 mph 33 % 0.0 in
15:58 11.7 °F -4.1 °F 1024.9 in SW 13.0 mph 13.0 mph 33 % 0.0 in
16:03 11.7 °F -4.5 °F 1024.9 in WNW 14.8 mph 14.8 mph 32 % 0.0 in
16:05 11.6 °F -4.6 °F 1024.9 in WNW 11.1 mph 11.1 mph 32 % 0.0 in
16:10 11.7 °F -4.5 °F 1024.9 in WNW 9.3 mph 9.3 mph 32 % 0.0 in
16:12 11.7 °F -4.5 °F 1024.9 in West 5.6 mph 5.6 mph 32 % 0.0 in
16:17 11.7 °F -4.5 °F 1024.9 in West 5.6 mph 5.6 mph 32 % 0.0 in
16:20 11.7 °F -4.5 °F 1024.9 in NW 7.4 mph 7.4 mph 32 % 0.0 in
16:25 11.7 °F -4.5 °F 1024.9 in West 5.6 mph 5.6 mph 32 % 0.0 in
16:27 11.7 °F -4.5 °F 1026.0 in West 9.3 mph 9.3 mph 32 % 0.0 in
16:32 11.6 °F -4.6 °F 1026.0 in SW 3.7 mph 3.7 mph 32 % 0.0 in
16:35 11.7 °F -4.5 °F 1026.0 in WNW 3.7 mph 3.7 mph 32 % 0.0 in
16:38 11.7 °F -4.5 °F 1026.0 in West 3.7 mph 3.7 mph 32 % 0.0 in
16:41 11.7 °F -4.5 °F 1024.9 in West 3.7 mph 3.7 mph 32 % 0.0 in
16:46 11.7 °F -4.5 °F 1024.9 in WSW 3.9 mph 3.9 mph 32 % 0.0 in
16:47 11.6 °F -4.6 °F 1024.9 in West 5.6 mph 5.8 mph 32 % 0.0 in
16:51 11.4 °F -4.7 °F 1024.9 in West 3.7 mph 3.7 mph 32 % 0.0 in
16:52 11.4 °F -4.7 °F 1024.9 in West 5.6 mph 5.6 mph 32 % 0.0 in
16:57 11.2 °F -4.9 °F 1026.0 in WNW 2.6 mph 2.6 mph 32 % 0.0 in
16:58 11.2 °F -4.9 °F 1026.0 in West 4.7 mph 4.7 mph 32 % 0.0 in
17:03 11.0 °F -5.1 °F 1026.0 in WSW 5.6 mph 5.6 mph 32 % 0.0 in
17:07 10.8 °F -5.3 °F 1026.0 in WNW 3.7 mph 3.7 mph 32 % 0.0 in
17:09 10.7 °F -5.8 °F 1026.0 in West 3.9 mph 3.9 mph 31 % 0.0 in
17:14 10.3 °F -6.1 °F 1026.0 in Calm     31 % 0.0 in
17:15 10.3 °F -6.1 °F 1026.0 in Calm     31 % 0.0 in
17:20 10.0 °F -6.4 °F 1026.0 in West 3.7 mph   31 % 0.0 in
17:21 9.9 °F -6.4 °F 1026.0 in WSW 3.7 mph 3.7 mph 31 % 0.0 in
17:26 9.6 °F -6.7 °F 1026.0 in Calm     31 % 0.0 in
17:29 9.4 °F -6.9 °F 1026.0 in WSW 3.7 mph 3.7 mph 31 % 0.0 in
17:30 9.4 °F -6.9 °F 1026.0 in WSW 3.7 mph 3.7 mph 31 % 0.0 in
17:35 9.2 °F -7.1 °F 1026.0 in WNW 3.7 mph 3.7 mph 31 % 0.0 in
17:36 9.2 °F -7.1 °F 1026.0 in SW 3.7 mph 3.7 mph 31 % 0.0 in
17:38 9.1 °F -7.2 °F 1026.0 in WSW 4.2 mph 4.2 mph 31 % 0.0 in
17:41 9.1 °F -7.2 °F 1026.0 in WSW 5.6 mph 5.6 mph 31 % 0.0 in
17:44 9.0 °F -7.3 °F 1026.0 in West 5.6 mph 5.6 mph 31 % 0.0 in
17:46 8.9 °F -7.3 °F 1026.0 in WNW 3.7 mph 3.7 mph 31 % 0.0 in
17:50 8.7 °F -7.5 °F 1026.0 in NW 1.9 mph 1.9 mph 31 % 0.0 in
17:52 8.6 °F -7.6 °F 1026.0 in West 3.7 mph 3.7 mph 31 % 0.0 in
17:57 8.5 °F -7.7 °F 1024.9 in WNW 3.5 mph 3.5 mph 31 % 0.0 in
17:58 8.5 °F -7.7 °F 1024.9 in WNW 3.7 mph 3.7 mph 31 % 0.0 in
18:03 8.3 °F -7.9 °F 1024.9 in West 5.6 mph 5.6 mph 31 % 0.0 in
18:06 8.2 °F -7.9 °F 1024.9 in West 3.7 mph 3.7 mph 31 % 0.0 in
18:09 8.2 °F -7.9 °F 1024.9 in West 3.7 mph 3.7 mph 31 % 0.0 in
18:14 8.0 °F -8.1 °F 1024.9 in West 5.6 mph 5.6 mph 31 % 0.0 in
18:19 7.7 °F -8.4 °F 1024.9 in WSW 5.3 mph 5.3 mph 31 % 0.0 in
18:20 4.7 °F -7.4 °F 1028.0 in NNW 1.6 mph 3.2 mph 41 % 0.0 in
18:21 7.7 °F -8.4 °F 1024.9 in WSW 5.6 mph 5.6 mph 31 % 0.0 in
18:24 7.4 °F -8.7 °F 1024.9 in SW 5.3 mph 5.3 mph 31 % 0.0 in
18:26 7.3 °F -8.7 °F 1026.0 in WSW 4.7 mph 4.7 mph 31 % 0.0 in
18:29 7.2 °F -8.8 °F 1026.0 in SW 2.3 mph   31 % 0.0 in
18:30 4.7 °F -7.2 °F 1028.0 in NNW 1.6 mph 3.2 mph 42 % 0.0 in
18:31 7.1 °F -8.9 °F 1026.0 in North 3.7 mph   31 % 0.0 in
18:37 7.2 °F -8.8 °F 1026.0 in WSW 5.6 mph 5.6 mph 31 % 0.0 in
18:40 4.9 °F -6.9 °F 1028.0 in North 3.2 mph 4.8 mph 42 % 0.0 in
18:42 7.2 °F -8.8 °F 1026.0 in WSW 5.0 mph 5.0 mph 31 % 0.0 in
18:43 7.2 °F -8.8 °F 1026.0 in West 5.6 mph 5.6 mph 31 % 0.0 in
18:44 7.2 °F -8.8 °F 1026.0 in WNW 5.6 mph 5.6 mph 31 % 0.0 in
18:49 7.2 °F -8.4 °F 1026.0 in West 3.7 mph 3.7 mph 32 % 0.0 in
18:50 4.8 °F -7.1 °F 1028.0 in North 1.6 mph 3.2 mph 42 % 0.0 in
19:00 4.7 °F -7.2 °F 1028.0 in NNE 1.6 mph 3.2 mph 42 % 0.0 in
19:05 7.4 °F -8.3 °F 1026.0 in WSW 5.6 mph 5.6 mph 32 % 0.0 in
19:06 7.4 °F -8.3 °F 1026.0 in SW 3.9 mph 4.2 mph 32 % 0.0 in
19:07 7.4 °F -8.3 °F 1026.0 in WSW 4.7 mph 4.7 mph 32 % 0.0 in
19:10 4.7 °F -6.8 °F 1028.0 in NNE 1.6 mph 3.2 mph 43 % 0.0 in
19:12 7.3 °F -8.3 °F 1026.0 in WNW 4.2 mph 4.2 mph 32 % 0.0 in
19:17 7.3 °F -8.3 °F 1026.0 in WSW 5.3 mph 5.3 mph 32 % 0.0 in
19:19 7.3 °F -8.3 °F 1026.0 in West 5.6 mph 5.6 mph 32 % 0.0 in
19:20 4.6 °F -6.9 °F 1029.0 in NNW 1.6 mph 3.2 mph 43 % 0.0 in
19:21 7.3 °F -8.3 °F 1026.0 in WNW 3.7 mph 3.7 mph 32 % 0.0 in
19:26 7.2 °F -8.4 °F 1027.0 in WSW 3.9 mph 3.9 mph 32 % 0.0 in
19:27 7.2 °F -8.4 °F 1027.0 in WSW 3.9 mph 3.9 mph 32 % 0.0 in
19:28 7.2 °F -8.4 °F 1027.0 in WSW 3.9 mph 3.9 mph 32 % 0.0 in
19:30 4.3 °F -7.2 °F 1029.0 in West 1.6 mph 3.2 mph 43 % 0.0 in
19:33 6.9 °F -8.7 °F 1027.0 in SW 3.7 mph 3.7 mph 32 % 0.0 in
19:36 6.9 °F -8.7 °F 1027.0 in West 3.7 mph 3.7 mph 32 % 0.0 in
19:38 6.9 °F -8.7 °F 1027.0 in West 1.9 mph   32 % 0.0 in
19:40 4.2 °F -7.3 °F 1029.0 in Calm   4.8 mph 43 % 0.0 in
19:43 7.0 °F -8.2 °F 1027.0 in WSW 3.7 mph 3.7 mph 33 % 0.0 in
19:45 6.9 °F -8.3 °F 1027.0 in WSW 3.9 mph 3.9 mph 33 % 0.0 in
19:50 6.7 °F -8.4 °F 1027.0 in WSW 2.6 mph 2.6 mph 33 % 0.0 in
19:51 6.7 °F -8.4 °F 1027.0 in SW 3.7 mph 3.7 mph 33 % 0.0 in
19:54 6.4 °F -8.7 °F 1027.0 in WNW 1.9 mph   33 % 0.0 in
19:56 6.4 °F -8.7 °F 1027.0 in SW 3.7 mph 3.7 mph 33 % 0.0 in
20:00 4.4 °F -6.8 °F 1029.0 in North 1.6 mph 6.4 mph 44 % 0.0 in
20:01 6.3 °F -8.8 °F 1027.0 in SSW 3.7 mph 3.7 mph 33 % 0.0 in
20:04 6.2 °F -8.9 °F 1027.0 in South 2.6 mph   33 % 0.0 in
20:07 6.0 °F -9.1 °F 1027.0 in SW 3.9 mph 3.9 mph 33 % 0.0 in
20:10 4.3 °F -6.9 °F 1030.0 in NNE 1.6 mph 6.4 mph 44 % 0.0 in
20:12 6.1 °F -9.0 °F 1027.0 in WNW 1.9 mph 2.6 mph 33 % 0.0 in
20:15 6.1 °F -9.0 °F 1027.0 in WSW 2.6 mph 2.6 mph 33 % 0.0 in
20:20 6.3 °F -8.4 °F 1027.0 in NW 3.7 mph 3.7 mph 34 % 0.0 in
20:22 6.4 °F -8.3 °F 1027.0 in East 3.7 mph 3.7 mph 34 % 0.0 in
20:27 6.4 °F -8.3 °F 1027.0 in West 1.9 mph   34 % 0.0 in
20:30 6.3 °F -8.4 °F 1027.0 in NE 1.9 mph   34 % 0.0 in
20:35 6.3 °F -8.4 °F 1027.0 in WNW 3.7 mph 3.7 mph 34 % 0.0 in
20:40 6.4 °F -8.3 °F 1027.0 in Calm     34 % 0.0 in
20:45 6.3 °F -8.4 °F 1028.0 in NNE 2.6 mph 2.6 mph 34 % 0.0 in
20:46 6.3 °F -8.4 °F 1028.0 in NW 3.9 mph 3.9 mph 34 % 0.0 in
20:50 3.8 °F -7.1 °F 1029.0 in North 1.6 mph 3.2 mph 45 % 0.0 in
20:51 6.3 °F -8.4 °F 1028.0 in SE 3.7 mph 3.7 mph 34 % 0.0 in
20:52 6.2 °F -8.6 °F 1028.0 in West 3.7 mph 3.7 mph 34 % 0.0 in
20:57 6.4 °F -8.3 °F 1028.0 in NNE 5.6 mph 5.6 mph 34 % 0.0 in
20:58 6.3 °F -8.4 °F 1028.0 in ESE 5.6 mph 5.6 mph 34 % 0.0 in
20:59 6.3 °F -8.4 °F 1028.0 in ESE 5.6 mph 5.6 mph 34 % 0.0 in
21:00 3.8 °F -7.1 °F 1029.0 in North 1.6 mph 1.6 mph 45 % 0.0 in
21:04 6.1 °F -8.6 °F 1028.0 in ENE 5.6 mph 5.6 mph 34 % 0.0 in
21:07 6.2 °F -8.6 °F 1028.0 in NE 3.7 mph 3.7 mph 34 % 0.0 in
21:10 3.6 °F -7.2 °F 1030.0 in Calm   3.2 mph 45 % 0.0 in
21:12 6.2 °F -8.6 °F 1028.0 in NNE 5.6 mph 5.6 mph 34 % 0.0 in
21:15 6.0 °F -8.7 °F 1028.0 in ENE 7.4 mph 7.4 mph 34 % 0.0 in
21:18 6.0 °F -8.7 °F 1028.0 in NNE 5.6 mph 5.6 mph 34 % 0.0 in
21:23 6.0 °F -8.7 °F 1028.0 in ENE 3.9 mph 3.9 mph 34 % 0.0 in
21:24 6.0 °F -8.7 °F 1028.0 in ENE 5.6 mph 5.6 mph 34 % 0.0 in
21:29 6.0 °F -8.7 °F 1027.0 in NNE 1.9 mph 2.6 mph 34 % 0.0 in
21:31 5.9 °F -8.8 °F 1027.0 in NNW 2.3 mph 2.3 mph 34 % 0.0 in
21:35 5.9 °F -8.8 °F 1027.0 in NW 3.7 mph 3.7 mph 34 % 0.0 in
21:36 5.9 °F -8.8 °F 1027.0 in NE 1.9 mph 1.9 mph 34 % 0.0 in
21:40 3.7 °F -6.9 °F 1029.0 in North 1.6 mph 3.2 mph 46 % 0.0 in
21:41 5.8 °F -8.9 °F 1027.0 in NNE 5.8 mph 5.8 mph 34 % 0.0 in
21:43 5.9 °F -8.4 °F 1027.0 in NNW 3.7 mph 3.7 mph 35 % 0.0 in
21:45 5.9 °F -8.4 °F 1027.0 in ENE 4.2 mph 4.2 mph 35 % 0.0 in
21:50 5.8 °F -8.5 °F 1027.0 in NE 6.4 mph 6.4 mph 35 % 0.0 in
21:55 5.9 °F -8.4 °F 1028.0 in NNW 5.6 mph 5.6 mph 35 % 0.0 in
22:00 5.8 °F -8.2 °F 1028.0 in SE 3.9 mph 3.9 mph 36 % 0.0 in
22:02 5.7 °F -8.2 °F 1028.0 in WSW 3.7 mph 3.7 mph 36 % 0.0 in
22:03 5.7 °F -8.2 °F 1028.0 in WSW 3.7 mph 3.7 mph 36 % 0.0 in
22:08 5.7 °F -8.2 °F 1028.0 in Calm     36 % 0.0 in
22:09 5.6 °F -8.3 °F 1028.0 in Calm     36 % 0.0 in
22:10 3.3 °F -6.9 °F 1029.0 in NNE 1.6 mph 4.8 mph 47 % 0.0 in
22:14 5.6 °F -8.3 °F 1028.0 in NNE 3.7 mph 3.7 mph 36 % 0.0 in
22:15 5.6 °F -8.4 °F 1028.0 in West 1.6 mph 3.2 mph 36 % 0.0 in
22:16 5.6 °F -8.3 °F 1028.0 in ENE 3.7 mph 3.7 mph 36 % 0.0 in
22:20 3.3 °F -6.9 °F 1029.0 in NNE 3.2 mph 4.8 mph 47 % 0.0 in
22:21 5.4 °F -8.2 °F 1028.0 in North 1.9 mph   37 % 0.0 in
22:22 5.4 °F -8.2 °F 1028.0 in Calm     37 % 0.0 in
22:27 5.4 °F -8.2 °F 1028.0 in WNW 3.7 mph   37 % 0.0 in
22:28 5.4 °F -8.2 °F 1028.0 in NE 3.7 mph   37 % 0.0 in
22:30 3.3 °F -6.9 °F 1029.0 in NNE 1.6 mph 3.2 mph 47 % 0.0 in
22:33 5.4 °F -7.8 °F 1028.0 in NW 1.4 mph   38 % 0.0 in
22:36 5.3 °F -7.9 °F 1028.0 in WNW 1.9 mph   38 % 0.0 in
22:38 5.2 °F -8.0 °F 1028.0 in SW 1.9 mph 1.9 mph 38 % 0.0 in
22:40 3.2 °F -7.1 °F 1029.0 in North 1.6 mph 1.6 mph 47 % 0.0 in
22:41 5.0 °F -8.2 °F 1028.0 in Calm     38 % 0.0 in
22:46 4.9 °F -8.3 °F 1028.0 in Calm     38 % 0.0 in
22:47 4.9 °F -8.3 °F 1028.0 in Calm     38 % 0.0 in
22:50 3.1 °F -6.9 °F 1029.0 in Calm   4.8 mph 48 % 0.0 in
22:52 4.9 °F -7.9 °F 1028.0 in Calm     39 % 0.0 in
22:56 4.9 °F -7.9 °F 1027.0 in Calm     39 % 0.0 in
22:58 4.9 °F -7.9 °F 1027.0 in Calm     39 % 0.0 in
23:00 3.1 °F -6.9 °F 1029.0 in NW 1.6 mph 1.6 mph 48 % 0.0 in
23:01 4.9 °F -7.9 °F 1027.0 in WNW 1.9 mph 1.9 mph 39 % 0.0 in
23:05 5.0 °F -7.8 °F 1027.0 in WNW 2.3 mph 2.3 mph 39 % 0.0 in
23:10 5.0 °F -7.8 °F 1028.0 in West 3.7 mph 3.7 mph 39 % 0.0 in
23:15 5.0 °F -7.5 °F 1028.0 in NE 2.3 mph 2.3 mph 40 % 0.0 in
23:17 5.0 °F -7.5 °F 1028.0 in ENE 3.2 mph 3.2 mph 40 % 0.0 in
23:20 3.0 °F -6.7 °F 1028.0 in NW 1.6 mph 3.2 mph 49 % 0.0 in
23:22 5.0 °F -7.5 °F 1028.0 in SSW 5.6 mph 5.6 mph 40 % 0.0 in
23:27 4.9 °F -7.6 °F 1027.0 in WSW 1.9 mph   40 % 0.0 in
23:30 3.1 °F -6.3 °F 1028.0 in NNE 1.6 mph 4.8 mph 50 % 0.0 in
23:32 4.9 °F -7.6 °F 1027.0 in Calm     40 % 0.0 in
23:35 4.9 °F -7.6 °F 1027.0 in South 1.9 mph   40 % 0.0 in
23:38 4.9 °F -7.3 °F 1027.0 in ENE 1.9 mph   41 % 0.0 in
23:41 4.9 °F -7.3 °F 1028.0 in NNE 1.9 mph   41 % 0.0 in
23:48 4.9 °F -7.3 °F 1028.0 in NNW 1.9 mph 1.9 mph 41 % 0.0 in
23:50 3.0 °F -6.2 °F 1028.0 in NE 1.6 mph 3.2 mph 51 % 0.0 in
23:53 4.8 °F -7.4 °F 1028.0 in NNE 4.2 mph 4.2 mph 41 % 0.0 in
23:54 4.8 °F -7.4 °F 1028.0 in East 3.7 mph 3.7 mph 41 % 0.0 in
23:57 4.8 °F -7.4 °F 1028.0 in ENE 2.6 mph 2.6 mph 41 % 0.0 in
Meteo Sesrovires
Elogis d' Weather Underground - 4 mb

Guio original per  Jim McMurry - jmcmurry@mwt.net Adaptat per a la plantilla per  Wim van der Kuil - Leuven-Template.eu

Trobareu la nostra informacio del temps tambe a:

Weather Underground

AWEKAS